Time;durP1;ratioP1;P1;durP2;ratioP2;P2;SDS_P1;SDS_P2;PMS_P1;PMS_P2;Temp;Humidity;BMP_temperature;BMP_pressure;BME280_temperature;BME280_humidity;BME280_pressure;Samples;Min_cycle;Max_cycle;Signal;HPM_P1;HPM_P2
2024/01/07 00:00:04;;;;;;;12.43;7.53;;;0.90;99.90;;;;;;5131440;27;20164;-79
2024/01/07 00:02:30;;;;;;;7.82;3.58;;;0.80;99.90;;;;;;5114788;28;20032;-79
2024/01/07 00:04:57;;;;;;;13.68;7.68;;;0.90;99.90;;;;;;5113978;27;20500;-79
2024/01/07 00:07:23;;;;;;;13.85;7.63;;;0.90;99.90;;;;;;5114871;28;20046;-79
2024/01/07 00:09:48;;;;;;;12.23;6.72;;;0.90;99.90;;;;;;5113838;27;20039;-79
2024/01/07 00:12:14;;;;;;;15.88;7.32;;;0.90;99.90;;;;;;5112431;27;20046;-79
2024/01/07 00:14:40;;;;;;;13.10;7.00;;;0.90;99.90;;;;;;5111585;28;20032;-79
2024/01/07 00:17:06;;;;;;;16.13;7.35;;;0.90;99.90;;;;;;5114988;28;20040;-79
2024/01/07 00:19:31;;;;;;;13.88;6.70;;;0.90;99.90;;;;;;5149752;27;20043;-80
2024/01/07 00:21:57;;;;;;;15.38;7.18;;;0.90;99.90;;;;;;5148969;27;20027;-79
2024/01/07 00:24:25;;;;;;;15.63;7.90;;;0.80;99.90;;;;;;5146463;27;20044;-79
2024/01/07 00:26:51;;;;;;;13.82;8.18;;;0.80;99.90;;;;;;5131952;27;20036;-79
2024/01/07 00:29:17;;;;;;;14.07;8.77;;;0.80;99.90;;;;;;5115036;28;20039;-79
2024/01/07 00:31:42;;;;;;;12.10;6.85;;;0.80;99.90;;;;;;5114445;28;20048;-79
2024/01/07 00:34:08;;;;;;;12.20;6.22;;;0.80;99.90;;;;;;5147410;27;20052;-79
2024/01/07 00:36:34;;;;;;;11.32;7.30;;;0.90;99.90;;;;;;5148186;27;20051;-79
2024/01/07 00:38:59;;;;;;;12.25;6.53;;;1.00;99.90;;;;;;5114149;27;20064;-79
2024/01/07 00:41:25;;;;;;;13.13;8.00;;;0.90;99.90;;;;;;5149263;27;20066;-79
2024/01/07 00:43:51;;;;;;;13.07;7.38;;;0.80;99.90;;;;;;5131083;27;20505;-79
2024/01/07 00:46:16;;;;;;;12.27;6.78;;;0.80;99.90;;;;;;5130268;27;20420;-79
2024/01/07 00:48:42;;;;;;;12.80;7.20;;;0.90;99.90;;;;;;5097199;27;20384;-79
2024/01/07 00:51:08;;;;;;;13.30;7.68;;;0.80;99.90;;;;;;5148333;27;20039;-79
2024/01/07 00:53:34;;;;;;;13.02;7.30;;;0.90;99.90;;;;;;5147168;27;20039;-79
2024/01/07 00:55:59;;;;;;;12.13;6.88;;;0.90;99.90;;;;;;5111736;28;20031;-79
2024/01/07 00:58:25;;;;;;;7.38;4.35;;;0.90;99.90;;;;;;5148176;27;20134;-80
2024/01/07 01:00:53;;;;;;;13.13;7.03;;;1.00;99.90;;;;;;5130063;27;20061;-79
2024/01/07 01:03:19;;;;;;;11.27;6.57;;;0.90;99.90;;;;;;5113798;28;20039;-79
2024/01/07 01:05:45;;;;;;;11.27;6.60;;;0.90;99.90;;;;;;5146010;27;20057;-79
2024/01/07 01:08:11;;;;;;;11.55;6.68;;;0.90;99.90;;;;;;5114011;28;20039;-79
2024/01/07 01:10:36;;;;;;;11.93;6.50;;;0.80;99.90;;;;;;5130613;27;20035;-79
2024/01/07 01:13:02;;;;;;;13.25;6.32;;;0.90;99.90;;;;;;5130473;27;20043;-80
2024/01/07 01:15:28;;;;;;;10.65;5.90;;;0.90;99.90;;;;;;5112890;28;20051;-79
2024/01/07 01:17:53;;;;;;;9.65;5.65;;;1.00;99.90;;;;;;5095996;28;20047;-79
2024/01/07 01:20:19;;;;;;;11.38;6.00;;;1.00;99.90;;;;;;5113346;27;20031;-79
2024/01/07 01:22:44;;;;;;;11.93;6.45;;;1.00;99.90;;;;;;5097202;28;20476;-79
2024/01/07 01:25:10;;;;;;;12.13;5.75;;;0.90;99.90;;;;;;5113029;27;20063;-79
2024/01/07 01:27:36;;;;;;;11.57;6.20;;;0.80;99.90;;;;;;5112090;28;20114;-80
2024/01/07 01:30:02;;;;;;;11.13;6.28;;;0.80;99.90;;;;;;5115805;27;20047;-79
2024/01/07 01:32:28;;;;;;;9.02;4.85;;;0.80;99.90;;;;;;5096207;28;20054;-79
2024/01/07 01:34:54;;;;;;;11.65;6.05;;;1.00;99.90;;;;;;5095575;28;20031;-80
2024/01/07 01:37:19;;;;;;;10.70;5.70;;;0.90;99.90;;;;;;5113014;28;20545;-79
2024/01/07 01:39:45;;;;;;;13.93;6.05;;;0.90;99.90;;;;;;5129518;27;20122;-79
2024/01/07 01:42:10;;;;;;;10.70;6.18;;;0.80;99.90;;;;;;5130738;27;20045;-79
2024/01/07 01:44:36;;;;;;;10.20;5.57;;;0.80;99.90;;;;;;5095830;28;20039;-79
2024/01/07 01:47:02;;;;;;;8.45;4.45;;;0.90;99.90;;;;;;5145339;27;20057;-80
2024/01/07 01:49:28;;;;;;;9.75;5.15;;;0.80;99.90;;;;;;5095852;28;20049;-79
2024/01/07 01:51:54;;;;;;;10.45;5.45;;;0.80;99.90;;;;;;5085823;28;20484;-80
2024/01/07 01:54:20;;;;;;;11.02;5.28;;;0.80;99.90;;;;;;5129456;27;20039;-80
2024/01/07 01:56:47;;;;;;;12.68;6.45;;;0.80;99.90;;;;;;5112238;28;20062;-79
2024/01/07 01:59:14;;;;;;;11.25;6.07;;;0.80;99.90;;;;;;5094747;28;20051;-79
2024/01/07 02:01:40;;;;;;;11.10;6.22;;;0.80;99.90;;;;;;5147500;27;20032;-78
2024/01/07 02:04:06;;;;;;;10.15;4.80;;;0.70;99.90;;;;;;5095675;28;20080;-80
2024/01/07 02:06:32;;;;;;;10.45;4.70;;;0.70;99.90;;;;;;5111437;28;20032;-79
2024/01/07 02:08:58;;;;;;;10.18;5.25;;;0.70;99.90;;;;;;5094509;28;20055;-79
2024/01/07 02:11:24;;;;;;;10.77;6.00;;;0.70;99.90;;;;;;5113098;28;20036;-80
2024/01/07 02:13:49;;;;;;;8.98;5.18;;;0.80;99.90;;;;;;5094745;28;20031;-79
2024/01/07 02:16:15;;;;;;;9.15;4.90;;;0.80;99.90;;;;;;5127737;27;20043;-79
2024/01/07 02:18:42;;;;;;;9.95;4.07;;;0.70;99.90;;;;;;5095010;28;20039;-80
2024/01/07 02:21:09;;;;;;;10.73;5.70;;;0.70;99.90;;;;;;5125751;27;20039;-79
2024/01/07 02:23:35;;;;;;;8.85;4.90;;;0.70;99.90;;;;;;5121411;27;20412;-79
2024/01/07 02:26:01;;;;;;;11.55;6.05;;;0.70;99.90;;;;;;5104802;28;20085;-80
2024/01/07 02:28:27;;;;;;;8.82;4.65;;;0.60;99.90;;;;;;5100029;28;20050;-79
2024/01/07 02:30:53;;;;;;;9.38;4.97;;;0.60;99.90;;;;;;5130043;27;20526;-80
2024/01/07 02:33:18;;;;;;;7.35;3.72;;;0.70;99.90;;;;;;5094075;28;20118;-79
2024/01/07 02:35:44;;;;;;;11.20;4.70;;;0.80;99.90;;;;;;5138697;27;20039;-79
2024/01/07 02:38:09;;;;;;;10.77;5.05;;;0.80;99.90;;;;;;5120423;27;20051;-79
2024/01/07 02:40:35;;;;;;;8.70;4.68;;;0.70;99.90;;;;;;5119818;27;20434;-79
2024/01/07 02:43:01;;;;;;;5.68;3.17;;;0.60;99.90;;;;;;5092000;28;20422;-79
2024/01/07 02:45:26;;;;;;;9.90;5.10;;;0.60;99.90;;;;;;5119811;27;20093;-79
2024/01/07 02:47:52;;;;;;;8.98;4.50;;;0.70;99.90;;;;;;5104102;27;20093;-79
2024/01/07 02:50:17;;;;;;;7.97;3.90;;;0.60;99.90;;;;;;5121197;27;20563;-79
2024/01/07 02:52:43;;;;;;;8.50;4.53;;;0.60;99.90;;;;;;5085733;28;20036;-79
2024/01/07 02:55:09;;;;;;;8.75;4.07;;;0.60;99.90;;;;;;5077021;28;20042;-79
2024/01/07 02:57:35;;;;;;;8.77;4.03;;;0.60;99.90;;;;;;5102938;27;20067;-79
2024/01/07 03:00:02;;;;;;;9.43;4.05;;;0.70;99.90;;;;;;5102737;28;20076;-79
2024/01/07 03:02:28;;;;;;;8.82;4.53;;;0.70;99.90;;;;;;5107082;28;20043;-79
2024/01/07 03:04:53;;;;;;;9.35;4.22;;;0.70;99.90;;;;;;5122338;27;20733;-79
2024/01/07 03:07:19;;;;;;;9.45;4.40;;;0.70;99.90;;;;;;5070116;28;20299;-79
2024/01/07 03:09:45;;;;;;;8.40;4.13;;;0.70;99.90;;;;;;5110472;28;20040;-79
2024/01/07 03:12:10;;;;;;;8.77;4.38;;;0.50;99.90;;;;;;5089648;28;21534;-79
2024/01/07 03:14:36;;;;;;;10.65;3.65;;;0.60;99.90;;;;;;5108777;28;20105;-78
2024/01/07 03:17:01;;;;;;;7.10;3.03;;;0.60;99.90;;;;;;5106123;28;20047;-79
2024/01/07 03:19:27;;;;;;;10.25;4.10;;;0.70;99.90;;;;;;5085348;28;20043;-79
2024/01/07 03:21:52;;;;;;;7.00;3.55;;;0.60;99.90;;;;;;5135027;27;20023;-79
2024/01/07 03:24:18;;;;;;;8.18;4.10;;;0.40;99.90;;;;;;5111243;28;20044;-79
2024/01/07 03:26:44;;;;;;;6.03;3.00;;;0.40;99.90;;;;;;5129310;28;20035;-79
2024/01/07 03:29:09;;;;;;;7.70;3.17;;;0.40;99.90;;;;;;5143443;27;20044;-79
2024/01/07 03:31:35;;;;;;;6.70;3.63;;;0.60;99.90;;;;;;5118644;27;20049;-80
2024/01/07 03:34:00;;;;;;;9.00;3.90;;;0.40;99.90;;;;;;5097249;28;20043;-79
2024/01/07 03:36:26;;;;;;;10.48;4.20;;;0.50;99.90;;;;;;5091511;28;20122;-79
2024/01/07 03:38:53;;;;;;;8.55;4.40;;;0.50;99.90;;;;;;5093384;28;20058;-78
2024/01/07 03:41:20;;;;;;;8.00;3.58;;;0.40;99.90;;;;;;5101709;28;20039;-79
2024/01/07 03:43:49;;;;;;;8.05;3.75;;;0.60;99.90;;;;;;5102605;28;20036;-79
2024/01/07 03:46:16;;;;;;;12.05;4.40;;;0.60;99.90;;;;;;5119797;27;20042;-79
2024/01/07 03:48:42;;;;;;;7.68;3.72;;;0.50;99.90;;;;;;5088637;28;20147;-79
2024/01/07 03:51:08;;;;;;;10.38;4.30;;;0.50;99.90;;;;;;5115130;27;20080;-79
2024/01/07 03:53:34;;;;;;;9.70;3.75;;;0.50;99.90;;;;;;5132757;27;20403;-79
2024/01/07 03:55:59;;;;;;;9.50;3.38;;;0.50;99.90;;;;;;5099094;27;20484;-79
2024/01/07 03:58:25;;;;;;;6.43;3.55;;;0.50;99.90;;;;;;5110623;27;20559;-79
2024/01/07 04:00:50;;;;;;;8.07;3.17;;;0.50;99.90;;;;;;5076014;27;20048;-79
2024/01/07 04:03:16;;;;;;;7.85;3.88;;;0.50;99.90;;;;;;5106587;27;20036;-79
2024/01/07 04:05:42;;;;;;;6.78;3.35;;;0.40;99.90;;;;;;5120888;27;20036;-79
2024/01/07 04:08:11;;;;;;;7.50;3.58;;;0.40;99.90;;;;;;5079099;27;20051;-79
2024/01/07 04:10:37;;;;;;;7.15;3.28;;;0.40;99.90;;;;;;5121812;27;20047;-79
2024/01/07 04:13:04;;;;;;;8.35;3.95;;;0.40;99.90;;;;;;5089678;27;20269;-79
2024/01/07 04:15:30;;;;;;;6.93;3.25;;;0.30;99.90;;;;;;5075511;28;20507;-78
2024/01/07 04:17:55;;;;;;;9.55;3.25;;;0.40;99.90;;;;;;5128499;27;20035;-78
2024/01/07 04:20:21;;;;;;;4.97;2.50;;;0.40;99.90;;;;;;5132244;27;20039;-78
2024/01/07 04:22:47;;;;;;;7.03;2.83;;;0.40;99.90;;;;;;5116495;27;20516;-79
2024/01/07 04:25:12;;;;;;;8.90;3.25;;;0.30;99.90;;;;;;5133114;27;20043;-79
2024/01/07 04:27:38;;;;;;;7.30;2.67;;;0.40;99.90;;;;;;5095782;27;20087;-79
2024/01/07 04:30:05;;;;;;;6.43;2.70;;;0.30;99.90;;;;;;5117846;27;20043;-79
2024/01/07 04:32:30;;;;;;;6.78;3.03;;;0.40;99.90;;;;;;5088593;27;20043;-78
2024/01/07 04:34:57;;;;;;;6.13;2.75;;;0.30;99.90;;;;;;5099149;27;20036;-78
2024/01/07 04:37:23;;;;;;;5.43;2.35;;;0.40;99.90;;;;;;5082009;28;20456;-79
2024/01/07 04:39:49;;;;;;;8.18;3.85;;;0.40;99.90;;;;;;5114090;27;20453;-79
2024/01/07 04:42:16;;;;;;;6.45;2.30;;;0.40;99.90;;;;;;5129010;27;20219;-79
2024/01/07 04:44:42;;;;;;;6.90;2.60;;;0.40;99.90;;;;;;5085495;27;20039;-79
2024/01/07 04:47:27;;;;;;;6.65;2.97;;;0.40;99.90;;;;;;5128232;27;20051;-79
2024/01/07 04:49:54;;;;;;;5.55;2.67;;;0.50;99.90;;;;;;5130313;27;20075;-79
2024/01/07 04:52:21;;;;;;;6.50;2.47;;;0.50;99.90;;;;;;5089363;27;20429;-79
2024/01/07 04:54:46;;;;;;;5.40;1.83;;;0.50;99.90;;;;;;5120271;27;20149;-79
2024/01/07 04:57:12;;;;;;;7.70;2.30;;;0.60;99.90;;;;;;5076768;27;20047;-78
2024/01/07 04:59:38;;;;;;;4.70;2.05;;;0.60;99.90;;;;;;5099696;27;20051;-79
2024/01/07 05:02:03;;;;;;;5.32;2.30;;;0.50;99.90;;;;;;5124398;27;20757;-79
2024/01/07 05:04:29;;;;;;;5.30;1.90;;;0.60;99.90;;;;;;5121469;27;20071;-78
2024/01/07 05:06:55;;;;;;;3.45;1.48;;;0.40;99.90;;;;;;5074381;28;20043;-79
2024/01/07 05:09:20;;;;;;;5.30;2.08;;;0.50;99.90;;;;;;5078025;28;20040;-79
2024/01/07 05:11:46;;;;;;;5.03;1.65;;;0.50;99.90;;;;;;5109013;27;20477;-79
2024/01/07 05:14:12;;;;;;;6.55;2.08;;;0.50;99.90;;;;;;5086996;27;20047;-78
2024/01/07 05:16:37;;;;;;;5.30;2.08;;;0.50;99.90;;;;;;5104018;27;20040;-78
2024/01/07 05:19:03;;;;;;;8.18;2.50;;;0.50;99.90;;;;;;5114168;27;20506;-78
2024/01/07 05:21:29;;;;;;;5.32;1.48;;;0.50;99.90;;;;;;5127978;27;20069;-78
2024/01/07 05:23:54;;;;;;;4.72;1.58;;;0.60;99.90;;;;;;5130634;27;20039;-79
2024/01/07 05:26:21;;;;;;;3.83;1.80;;;0.60;99.90;;;;;;5089001;27;20044;-78
2024/01/07 05:28:46;;;;;;;6.05;2.00;;;0.60;99.90;;;;;;5131566;27;20028;-78
2024/01/07 05:31:18;;;;;;;5.30;3.72;;;0.60;99.90;;;;;;5094625;27;20047;-78
2024/01/07 05:33:45;;;;;;;;;;;0.40;99.90;;;;;;5120663;27;20075;-78
2024/01/07 05:36:11;;;;;;;8.27;2.40;;;0.60;99.90;;;;;;5115266;27;19927;-79
2024/01/07 05:38:37;;;;;;;5.55;2.25;;;0.50;99.90;;;;;;5121551;27;20058;-79
2024/01/07 05:41:02;;;;;;;3.17;1.60;;;0.50;99.90;;;;;;5103931;27;20492;-79
2024/01/07 05:43:28;;;;;;;4.38;1.80;;;0.50;99.90;;;;;;5078239;28;20046;-79
2024/01/07 05:45:54;;;;;;;3.38;2.10;;;0.50;99.90;;;;;;5074733;27;20036;-79
2024/01/07 05:48:23;;;;;;;3.65;1.73;;;0.50;99.90;;;;;;5094058;27;20387;-78
2024/01/07 05:50:49;;;;;;;4.30;1.90;;;0.50;99.90;;;;;;5122495;27;20052;-78
2024/01/07 05:53:15;;;;;;;4.03;1.55;;;0.50;99.90;;;;;;5099994;28;20446;-78
2024/01/07 05:55:40;;;;;;;1.30;0.68;;;0.50;99.90;;;;;;5115289;27;20130;-79
2024/01/07 05:58:06;;;;;;;3.92;1.45;;;0.50;99.90;;;;;;5070812;27;20055;-78
2024/01/07 06:00:31;;;;;;;4.10;1.88;;;0.50;99.90;;;;;;5123245;27;20157;-78
2024/01/07 06:02:57;;;;;;;2.85;1.25;;;0.40;99.90;;;;;;5120589;27;20042;-79
2024/01/07 06:05:23;;;;;;;2.78;1.05;;;0.50;99.90;;;;;;5108999;27;20039;-79
2024/01/07 06:07:49;;;;;;;4.43;1.80;;;0.50;99.90;;;;;;5128134;27;20166;-79
2024/01/07 06:10:14;;;;;;;5.05;1.60;;;0.60;99.90;;;;;;5113341;27;20039;-79
2024/01/07 06:12:40;;;;;;;5.05;1.40;;;0.60;99.90;;;;;;5072563;28;20074;-79
2024/01/07 06:15:06;;;;;;;4.07;2.10;;;0.50;99.90;;;;;;5090344;27;20079;-78
2024/01/07 06:17:32;;;;;;;4.05;1.50;;;0.40;99.90;;;;;;5074440;28;20707;-79
2024/01/07 06:19:58;;;;;;;3.42;1.70;;;0.40;99.90;;;;;;5087757;27;20039;-80
2024/01/07 06:22:24;;;;;;;3.25;1.40;;;0.50;99.90;;;;;;5120151;27;20418;-78
2024/01/07 06:24:49;;;;;;;3.45;1.65;;;0.50;99.90;;;;;;5103186;27;20791;-79
2024/01/07 06:27:15;;;;;;;3.92;1.80;;;0.40;99.90;;;;;;5105364;27;20039;-78
2024/01/07 06:29:40;;;;;;;5.18;1.50;;;0.40;99.90;;;;;;5095336;28;20035;-78
2024/01/07 06:32:06;;;;;;;2.95;1.50;;;0.30;99.90;;;;;;5125828;27;20035;-78
2024/01/07 06:34:33;;;;;;;3.88;1.58;;;0.40;99.90;;;;;;5125216;27;20078;-78
2024/01/07 06:36:59;;;;;;;3.40;1.50;;;0.40;99.90;;;;;;5078508;28;20055;-79
2024/01/07 06:39:26;;;;;;;3.53;1.60;;;0.40;99.90;;;;;;5140863;27;20403;-78
2024/01/07 06:41:53;;;;;;;3.15;1.40;;;0.40;99.90;;;;;;5077785;28;20499;-78
2024/01/07 06:44:18;;;;;;;3.40;1.08;;;0.60;99.90;;;;;;5107088;27;20035;-79
2024/01/07 06:46:44;;;;;;;4.45;1.90;;;0.50;99.90;;;;;;5120654;27;20031;-78
2024/01/07 06:49:09;;;;;;;4.63;1.63;;;0.40;99.90;;;;;;5090688;27;20089;-78
2024/01/07 06:51:35;;;;;;;2.90;1.45;;;0.30;99.90;;;;;;5085354;28;20043;-78
2024/01/07 06:54:01;;;;;;;4.80;1.65;;;0.30;99.90;;;;;;5109376;27;20138;-77
2024/01/07 06:56:27;;;;;;;4.32;1.35;;;0.30;99.90;;;;;;5090151;28;20058;-78
2024/01/07 06:58:52;;;;;;;3.35;1.10;;;0.30;99.90;;;;;;5089021;28;20081;-78
2024/01/07 07:01:25;;;;;;;3.10;1.35;;;0.40;99.90;;;;;;5108611;28;20044;-79
2024/01/07 07:03:50;;;;;;;3.90;1.73;;;0.30;99.90;;;;;;5088557;28;20888;-78
2024/01/07 07:06:17;;;;;;;3.50;1.30;;;0.30;99.90;;;;;;5123433;27;20147;-78
2024/01/07 07:08:42;;;;;;;3.50;1.13;;;0.30;99.90;;;;;;5074578;28;20068;-78
2024/01/07 07:11:08;;;;;;;4.05;1.55;;;0.30;99.90;;;;;;5121584;27;20044;-78
2024/01/07 07:13:34;;;;;;;5.50;1.70;;;0.30;99.90;;;;;;5091853;28;20067;-78
2024/01/07 07:16:00;;;;;;;3.45;1.27;;;0.20;99.90;;;;;;5114014;28;20175;-79
2024/01/07 07:18:26;;;;;;;4.88;1.60;;;0.40;99.90;;;;;;5087895;28;20084;-78
2024/01/07 07:20:51;;;;;;;3.58;1.40;;;0.30;99.90;;;;;;5119270;27;20032;-79
2024/01/07 07:23:17;;;;;;;3.58;1.73;;;0.20;99.90;;;;;;5113469;27;20035;-78
2024/01/07 07:25:43;;;;;;;3.40;1.65;;;0.20;99.90;;;;;;5086465;27;20044;-78
2024/01/07 07:28:09;;;;;;;4.40;1.80;;;0.30;99.90;;;;;;5126142;27;20038;-79
2024/01/07 07:30:34;;;;;;;4.78;1.40;;;0.20;99.90;;;;;;5081782;28;20036;-78
2024/01/07 07:33:00;;;;;;;4.13;2.10;;;0.20;99.90;;;;;;5111044;27;20118;-78
2024/01/07 07:35:26;;;;;;;5.55;1.55;;;0.20;99.90;;;;;;5144561;27;20145;-78
2024/01/07 07:37:51;;;;;;;3.47;1.30;;;0.20;99.90;;;;;;5113136;27;20046;-78
2024/01/07 07:40:17;;;;;;;4.40;1.73;;;0.20;99.90;;;;;;5094975;28;20036;-78
2024/01/07 07:42:43;;;;;;;4.88;1.52;;;0.10;99.90;;;;;;5129273;27;20046;-80
2024/01/07 07:45:09;;;;;;;2.67;1.38;;;0.10;99.90;;;;;;5147162;27;21621;-78
2024/01/07 07:47:34;;;;;;;4.28;1.50;;;0.10;99.90;;;;;;5089976;28;20119;-78
2024/01/07 07:50:01;;;;;;;4.30;1.50;;;0.20;99.90;;;;;;5111049;28;20043;-78
2024/01/07 07:52:27;;;;;;;4.65;1.30;;;0.00;99.90;;;;;;5097678;28;20036;-78
2024/01/07 07:54:54;;;;;;;4.10;1.75;;;0.00;99.90;;;;;;5145300;27;20047;-78
2024/01/07 07:57:25;;;;;;;4.57;1.38;;;0.00;99.90;;;;;;5127170;27;20047;-78
2024/01/07 07:59:50;;;;;;;3.33;1.33;;;0.10;99.90;;;;;;5115142;28;20052;-79
2024/01/07 08:02:16;;;;;;;4.18;1.75;;;0.00;99.90;;;;;;5097727;28;20098;-78
2024/01/07 08:04:43;;;;;;;4.40;1.58;;;0.10;99.90;;;;;;5104859;28;20038;-79
2024/01/07 08:07:09;;;;;;;4.50;1.70;;;0.00;99.90;;;;;;5141379;27;20075;-79
2024/01/07 08:09:38;;;;;;;2.58;1.38;;;0.00;99.90;;;;;;5098043;28;20035;-79
2024/01/07 08:12:05;;;;;;;3.00;1.35;;;-0.10;99.90;;;;;;5131739;27;20116;-79
2024/01/07 08:14:32;;;;;;;3.10;1.30;;;-0.10;99.90;;;;;;5079129;28;20040;-78
2024/01/07 08:16:58;;;;;;;5.68;1.45;;;-0.10;99.90;;;;;;5092804;28;20122;-79
2024/01/07 08:19:23;;;;;;;3.70;1.42;;;0.00;99.90;;;;;;5113546;27;20127;-78
2024/01/07 08:21:49;;;;;;;5.70;2.03;;;-0.10;99.90;;;;;;5096827;28;20143;-79
2024/01/07 08:24:14;;;;;;;5.32;1.70;;;-0.10;99.90;;;;;;5131794;27;20038;-79
2024/01/07 08:26:40;;;;;;;4.25;1.27;;;-0.10;99.90;;;;;;5145880;27;20062;-79
2024/01/07 08:29:06;;;;;;;5.32;1.55;;;-0.10;99.90;;;;;;5107570;27;20071;-79
2024/01/07 08:31:32;;;;;;;3.17;1.70;;;-0.10;99.90;;;;;;5138690;27;20388;-79
2024/01/07 08:33:58;;;;;;;5.05;1.65;;;-0.10;99.90;;;;;;5095166;28;20242;-79
2024/01/07 08:36:23;;;;;;;2.83;1.05;;;0.00;99.90;;;;;;5113908;28;20036;-80
2024/01/07 08:38:49;;;;;;;4.25;1.33;;;0.00;99.90;;;;;;5093771;28;20035;-78
2024/01/07 08:41:18;;;;;;;1.83;1.10;;;-0.10;99.90;;;;;;5129972;27;20476;-79
2024/01/07 08:43:45;;;;;;;2.38;1.08;;;-0.10;99.90;;;;;;5124145;27;20073;-79
2024/01/07 08:46:11;;;;;;;3.88;1.23;;;-0.10;99.90;;;;;;5096554;28;20576;-78
2024/01/07 08:48:36;;;;;;;5.28;1.50;;;-0.10;99.90;;;;;;5097961;28;20126;-79
2024/01/07 08:51:03;;;;;;;3.33;1.50;;;-0.10;99.90;;;;;;5145819;27;20065;-79
2024/01/07 08:53:29;;;;;;;3.13;1.45;;;-0.10;99.90;;;;;;5096445;28;20043;-79
2024/01/07 08:55:54;;;;;;;4.28;1.38;;;-0.10;99.90;;;;;;5114769;28;20039;-79
2024/01/07 08:58:20;;;;;;;6.55;1.90;;;0.00;99.90;;;;;;5114616;28;20043;-78
2024/01/07 09:00:45;;;;;;;3.63;1.65;;;0.00;99.90;;;;;;5145520;27;20496;-79
2024/01/07 09:03:11;;;;;;;2.70;1.20;;;0.00;99.90;;;;;;5095861;28;20035;-80
2024/01/07 09:05:37;;;;;;;3.70;1.55;;;0.10;99.90;;;;;;5128049;27;20036;-79
2024/01/07 09:08:03;;;;;;;4.10;1.73;;;0.10;99.90;;;;;;5110928;28;20070;-79
2024/01/07 09:10:28;;;;;;;3.15;1.60;;;0.10;99.90;;;;;;5115402;27;20097;-79
2024/01/07 09:12:54;;;;;;;3.90;1.50;;;0.10;99.90;;;;;;5130555;27;20043;-79
2024/01/07 09:15:20;;;;;;;4.20;1.67;;;0.20;99.90;;;;;;5096109;28;20044;-79
2024/01/07 09:17:47;;;;;;;3.60;1.48;;;0.20;99.90;;;;;;5131232;27;20051;-79
2024/01/07 09:20:13;;;;;;;4.97;1.80;;;0.30;99.90;;;;;;5095699;27;20403;-79
2024/01/07 09:22:39;;;;;;;4.60;1.75;;;0.30;99.90;;;;;;5121273;27;20122;-79
2024/01/07 09:25:06;;;;;;;3.05;1.40;;;0.30;99.90;;;;;;5129290;27;20123;-79
2024/01/07 09:27:32;;;;;;;5.80;1.90;;;0.30;99.90;;;;;;5113979;28;20035;-79
2024/01/07 09:29:58;;;;;;;4.70;1.23;;;0.30;99.90;;;;;;5130936;27;20768;-79
2024/01/07 09:32:24;;;;;;;3.83;1.30;;;0.30;99.90;;;;;;5127808;27;20035;-79
2024/01/07 09:34:49;;;;;;;3.35;1.70;;;0.30;99.90;;;;;;5113985;27;20043;-79
2024/01/07 09:37:16;;;;;;;4.32;2.00;;;0.40;99.90;;;;;;5096783;28;20069;-79
2024/01/07 09:39:42;;;;;;;4.28;1.70;;;0.30;99.90;;;;;;5130954;27;20046;-78
2024/01/07 09:42:13;;;;;;;6.43;1.92;;;0.30;99.90;;;;;;5144791;27;20040;-78
2024/01/07 09:44:40;;;;;;;3.43;1.50;;;0.30;99.90;;;;;;5114535;27;20031;-79
2024/01/07 09:47:14;;;;;;;2.63;1.42;;;0.40;99.90;;;;;;5113262;28;20553;-79
2024/01/07 09:49:41;;;;;;;5.65;1.77;;;0.40;99.90;;;;;;5147352;27;20036;-79
2024/01/07 09:52:09;;;;;;;5.05;1.80;;;0.40;99.90;;;;;;5143896;27;20044;-78
2024/01/07 09:54:39;;;;;;;4.28;1.30;;;0.40;99.90;;;;;;5092583;28;20084;-80
2024/01/07 09:57:09;;;;;;;3.53;1.50;;;0.50;99.90;;;;;;5148068;27;20400;-79
2024/01/07 09:59:36;;;;;;;3.53;1.35;;;0.50;99.90;;;;;;5129255;27;20078;-78
2024/01/07 10:02:02;;;;;;;5.53;1.58;;;0.60;99.90;;;;;;5147029;27;20773;-79
2024/01/07 10:04:28;;;;;;;3.45;1.52;;;0.60;99.90;;;;;;5093164;28;20102;-79
2024/01/07 10:06:54;;;;;;;4.50;1.65;;;0.60;99.90;;;;;;5088509;28;20115;-79
2024/01/07 10:09:26;;;;;;;3.88;1.60;;;0.60;99.90;;;;;;5117940;27;20556;-79
2024/01/07 10:11:52;;;;;;;4.28;1.48;;;0.70;99.90;;;;;;5110050;28;20503;-79
2024/01/07 10:14:19;;;;;;;3.63;1.30;;;0.70;99.90;;;;;;5124430;27;20503;-79
2024/01/07 10:16:45;;;;;;;3.20;1.30;;;0.70;99.90;;;;;;5089810;28;20483;-79
2024/01/07 10:19:11;;;;;;;4.00;1.40;;;0.80;99.90;;;;;;5125677;27;20392;-77
2024/01/07 10:21:37;;;;;;;4.18;1.60;;;0.70;99.90;;;;;;5125441;27;20038;-79
2024/01/07 10:24:10;;;;;;;4.03;1.33;;;0.90;99.90;;;;;;5133457;27;20032;-79
2024/01/07 10:26:38;;;;;;;4.40;1.40;;;0.80;99.90;;;;;;5138459;27;20036;-78
2024/01/07 10:29:04;;;;;;;3.53;1.60;;;0.80;99.90;;;;;;5094112;28;20484;-78
2024/01/07 10:31:29;;;;;;;2.05;1.10;;;0.80;99.90;;;;;;5093892;28;20040;-79
2024/01/07 10:33:57;;;;;;;3.30;1.30;;;0.80;99.90;;;;;;5092534;28;20036;-77
2024/01/07 10:36:24;;;;;;;5.60;1.70;;;0.80;99.90;;;;;;5107023;27;20031;-77
2024/01/07 10:38:50;;;;;;;5.30;1.73;;;0.80;99.90;;;;;;5120995;27;20131;-78
2024/01/07 10:41:18;;;;;;;2.83;1.38;;;0.80;99.90;;;;;;5091718;28;20496;-78
2024/01/07 10:43:47;;;;;;;2.83;1.35;;;0.80;99.90;;;;;;5101475;27;20039;-78
2024/01/07 10:46:14;;;;;;;4.60;1.70;;;0.80;99.90;;;;;;5127145;27;20039;-78
2024/01/07 10:48:58;;;;;;;3.30;1.30;;;0.90;99.90;;;;;;5110098;28;20456;-77
2024/01/07 10:51:27;;;;;;;4.35;1.77;;;1.00;99.90;;;;;;5124254;27;20126;-78
2024/01/07 10:53:54;;;;;;;6.57;2.35;;;1.00;99.90;;;;;;5111368;28;20061;-77
2024/01/07 10:56:23;;;;;;;4.10;1.63;;;1.00;99.90;;;;;;5106726;28;20040;-77
2024/01/07 10:58:52;;;;;;;5.55;1.75;;;0.90;99.90;;;;;;5109272;28;20055;-78
2024/01/07 11:01:19;;;;;;;6.07;2.05;;;0.90;99.90;;;;;;5104991;28;20040;-77
2024/01/07 11:04:06;;;;;;;6.20;1.58;;;1.00;99.90;;;;;;5110682;28;20102;-77
2024/01/07 11:06:42;;;;;;;4.22;1.80;;;1.00;99.90;;;;;;5092150;28;20043;-78
2024/01/07 11:09:33;;;;;;;4.13;1.70;;;1.10;99.90;;;;;;5111398;28;20106;-77
2024/01/07 11:11:59;;;;;;;5.00;2.47;;;1.10;99.90;;;;;;5108475;28;20487;-77
2024/01/07 11:14:39;;;;;;;5.78;1.98;;;1.20;99.90;;;;;;5105622;28;20027;-77
2024/01/07 11:17:08;;;;;;;5.25;1.92;;;1.10;99.90;;;;;;5074674;28;20043;-77
2024/01/07 11:19:38;;;;;;;4.53;1.70;;;1.20;99.90;;;;;;5123997;27;20118;-77
2024/01/07 11:22:27;;;;;;;6.65;2.67;;;1.20;99.90;;;;;;5100687;28;20036;-77
2024/01/07 11:24:56;;;;;;;3.90;1.48;;;1.20;99.90;;;;;;5094093;28;20054;-77
2024/01/07 11:27:22;;;;;;;5.20;2.47;;;1.20;99.90;;;;;;5094654;28;20032;-77
2024/01/07 11:30:04;;;;;;;5.13;1.95;;;1.20;99.90;;;;;;5142095;27;20035;-77
2024/01/07 11:32:30;;;;;;;5.18;1.85;;;1.40;99.90;;;;;;5108823;28;20088;-77
2024/01/07 11:34:59;;;;;;;2.45;1.20;;;1.40;99.90;;;;;;5094005;28;20039;-77
2024/01/07 11:37:25;;;;;;;4.60;2.03;;;1.50;99.90;;;;;;5127948;28;20123;-77
2024/01/07 11:39:56;;;;;;;6.30;2.20;;;1.50;99.90;;;;;;5143980;27;20543;-77
2024/01/07 11:42:22;;;;;;;7.55;1.83;;;1.50;99.90;;;;;;5119307;27;20044;-77
2024/01/07 11:44:52;;;;;;;4.40;1.60;;;1.50;99.90;;;;;;5106468;28;20047;-77
2024/01/07 11:47:19;;;;;;;4.38;1.95;;;1.40;99.90;;;;;;5084910;28;20047;-77
2024/01/07 11:49:45;;;;;;;5.43;1.80;;;1.50;99.90;;;;;;5107747;28;20038;-77
2024/01/07 11:52:11;;;;;;;4.80;1.73;;;1.50;99.90;;;;;;5087886;28;20040;-77
2024/01/07 11:54:41;;;;;;;3.80;1.40;;;1.50;99.90;;;;;;5143728;27;20039;-78
2024/01/07 11:57:07;;;;;;;6.57;2.22;;;1.50;99.90;;;;;;5094254;28;20395;-77
2024/01/07 11:59:36;;;;;;;5.03;2.28;;;1.50;99.90;;;;;;5108240;28;20043;-77
2024/01/07 12:02:04;;;;;;;5.55;2.42;;;1.50;99.90;;;;;;5109583;28;20044;-77
2024/01/07 12:04:30;;;;;;;4.05;1.65;;;1.50;99.90;;;;;;5082631;28;20117;-77
2024/01/07 12:06:56;;;;;;;5.13;2.30;;;1.50;99.90;;;;;;5140433;27;20031;-76
2024/01/07 12:09:21;;;;;;;9.05;3.30;;;1.50;99.90;;;;;;5092639;28;20173;-76
2024/01/07 12:11:47;;;;;;;8.10;3.00;;;1.40;99.90;;;;;;5096137;28;20032;-77
2024/01/07 12:14:14;;;;;;;6.65;2.47;;;1.40;99.90;;;;;;5096249;28;20500;-75
2024/01/07 12:16:40;;;;;;;7.65;2.95;;;1.40;99.90;;;;;;5096261;28;20031;-77
2024/01/07 12:19:06;;;;;;;7.05;3.28;;;1.40;99.90;;;;;;5096208;28;20504;-77
2024/01/07 12:21:31;;;;;;;7.63;2.88;;;1.40;99.90;;;;;;5117648;27;20051;-77
2024/01/07 12:23:57;;;;;;;6.55;2.60;;;1.40;99.90;;;;;;5114613;28;20066;-77
2024/01/07 12:26:27;;;;;;;6.25;2.55;;;1.30;99.90;;;;;;5095636;28;20067;-77
2024/01/07 12:28:55;;;;;;;7.78;2.58;;;1.40;99.90;;;;;;5096383;28;20035;-77
2024/01/07 12:31:21;;;;;;;5.32;2.40;;;1.40;99.90;;;;;;5146285;27;20434;-77
2024/01/07 12:33:47;;;;;;;6.43;2.45;;;1.40;99.90;;;;;;5095292;28;20069;-77
2024/01/07 12:36:12;;;;;;;7.05;2.63;;;1.40;99.90;;;;;;5113171;27;20089;-77
2024/01/07 12:38:38;;;;;;;5.85;2.25;;;1.40;99.90;;;;;;5086748;28;20035;-78
2024/01/07 12:41:04;;;;;;;7.35;3.00;;;1.50;99.90;;;;;;5112601;28;20040;-77
2024/01/07 12:43:30;;;;;;;8.07;2.72;;;1.40;99.90;;;;;;5131017;27;20118;-78
2024/01/07 12:45:56;;;;;;;8.13;2.35;;;1.40;99.90;;;;;;5130479;27;20531;-77
2024/01/07 12:48:22;;;;;;;8.18;2.40;;;1.50;99.90;;;;;;5145849;27;20031;-77
2024/01/07 12:50:48;;;;;;;5.90;2.35;;;1.50;99.90;;;;;;5092546;28;20583;-78